createdAt,value
2023-02-19T00:01:36.659Z,1.37
2023-02-19T00:04:07.463Z,1.44
2023-02-19T00:06:35.517Z,1.58
2023-02-19T00:09:03.264Z,1.67
2023-02-19T00:11:32.145Z,1.71
2023-02-19T00:14:00.289Z,1.64
2023-02-19T00:16:32.329Z,1.45
2023-02-19T00:19:00.248Z,1.29
2023-02-19T00:21:28.373Z,1.26
2023-02-19T00:23:58.336Z,1.33
2023-02-19T00:26:26.366Z,1.37
2023-02-19T00:28:54.112Z,1.44
2023-02-19T00:31:29.915Z,1.51
2023-02-19T00:33:59.693Z,1.29
2023-02-19T00:36:27.684Z,1.05
2023-02-19T00:38:54.714Z,1.06
2023-02-19T00:41:23.304Z,1.25
2023-02-19T00:43:54.203Z,1.34
2023-02-19T00:46:26.706Z,1.42
2023-02-19T00:48:56.282Z,1.42
2023-02-19T00:51:25.670Z,1.47
2023-02-19T00:53:53.694Z,1.24
2023-02-19T00:56:20.698Z,1.18
2023-02-19T00:58:48.952Z,1.09
2023-02-19T01:01:16.766Z,1.13
2023-02-19T01:03:43.554Z,1.17
2023-02-19T01:06:11.954Z,1.13
2023-02-19T01:08:39.102Z,1.02
2023-02-19T01:11:08.100Z,1.19
2023-02-19T01:13:35.861Z,1.38
2023-02-19T01:16:08.712Z,1.37
2023-02-19T01:18:35.993Z,1.16
2023-02-19T01:21:13.819Z,1.08
2023-02-19T01:23:40.872Z,1.21
2023-02-19T01:26:09.749Z,1.30
2023-02-19T01:28:36.538Z,1.35
2023-02-19T01:31:04.439Z,1.29
2023-02-19T01:33:31.992Z,1.39
2023-02-19T01:35:59.196Z,1.13
2023-02-19T01:38:26.333Z,0.70
2023-02-19T01:40:57.236Z,0.89
2023-02-19T01:43:24.600Z,0.63
2023-02-19T01:45:51.334Z,0.70
2023-02-19T01:48:26.493Z,0.90
2023-02-19T01:51:17.282Z,0.75
2023-02-19T01:53:47.829Z,0.92
2023-02-19T01:56:17.976Z,0.51
2023-02-19T01:58:46.306Z,0.46
2023-02-19T02:01:13.639Z,0.52
2023-02-19T02:03:45.237Z,0.58
2023-02-19T02:06:28.535Z,0.28
2023-02-19T02:09:15.546Z,0.35
2023-02-19T02:12:00.098Z,0.30
2023-02-19T02:14:31.003Z,0.44
2023-02-19T02:17:04.677Z,0.56
2023-02-19T02:19:43.491Z,0.57
2023-02-19T02:22:31.404Z,0.63
2023-02-19T02:25:16.087Z,0.74
2023-02-19T02:27:56.415Z,0.81
2023-02-19T02:30:33.352Z,0.81
2023-02-19T02:33:12.656Z,0.81
2023-02-19T02:36:03.469Z,0.56
2023-02-19T02:38:33.133Z,0.90
2023-02-19T02:41:00.410Z,0.82
2023-02-19T02:43:27.168Z,0.89
2023-02-19T02:45:53.946Z,0.94
2023-02-19T02:48:27.007Z,0.96
2023-02-19T02:51:05.187Z,1.03
2023-02-19T02:54:24.476Z,1.13
2023-02-19T02:56:52.682Z,1.24
2023-02-19T02:59:26.409Z,0.92
2023-02-19T03:02:14.597Z,1.12
2023-02-19T03:05:01.261Z,1.13
2023-02-19T03:07:35.055Z,1.17
2023-02-19T03:10:05.121Z,1.22
2023-02-19T03:12:54.388Z,0.88
2023-02-19T03:15:43.438Z,0.85
2023-02-19T03:18:32.866Z,0.51
2023-02-19T03:21:02.489Z,0.81
2023-02-19T03:23:51.502Z,0.91
2023-02-19T03:26:19.589Z,0.91
2023-02-19T03:29:08.874Z,0.90
2023-02-19T03:31:40.516Z,0.86
2023-02-19T03:34:14.405Z,0.74
2023-02-19T03:36:46.101Z,0.87
2023-02-19T03:39:17.496Z,0.89
2023-02-19T03:42:00.233Z,0.92
2023-02-19T03:44:45.546Z,0.89
2023-02-19T03:47:15.087Z,0.75
2023-02-19T03:49:49.165Z,0.70
2023-02-19T03:52:49.420Z,0.69
2023-02-19T03:55:33.511Z,0.58
2023-02-19T03:58:23.924Z,0.51
2023-02-19T04:00:58.727Z,0.55
2023-02-19T04:03:25.243Z,0.46
2023-02-19T04:06:15.901Z,0.51
2023-02-19T04:08:48.517Z,0.59
2023-02-19T04:11:17.054Z,0.71
2023-02-19T04:14:01.626Z,0.60
2023-02-19T04:16:29.850Z,0.74
2023-02-19T04:19:05.354Z,0.67
2023-02-19T04:21:35.132Z,0.76
2023-02-19T04:24:07.568Z,0.52
2023-02-19T04:26:35.672Z,0.72
2023-02-19T04:29:02.407Z,0.86
2023-02-19T04:31:31.346Z,0.93
2023-02-19T04:33:58.136Z,1.00
2023-02-19T04:36:24.753Z,1.00
2023-02-19T04:38:51.465Z,0.98
2023-02-19T04:41:18.131Z,0.61
2023-02-19T04:43:44.787Z,0.88
2023-02-19T04:46:11.463Z,0.77
2023-02-19T04:48:38.205Z,0.75
2023-02-19T04:51:06.842Z,0.61
2023-02-19T04:53:34.628Z,0.57
2023-02-19T04:56:12.852Z,0.11
2023-02-19T04:58:40.865Z,0.51
2023-02-19T05:01:08.634Z,0.62
2023-02-19T05:03:35.704Z,0.37
2023-02-19T05:06:08.371Z,0.09
2023-02-19T05:08:36.331Z,0.15
2023-02-19T05:11:05.267Z,0.35
2023-02-19T05:13:32.439Z,0.33
2023-02-19T05:16:04.964Z,0.38
2023-02-19T05:18:32.504Z,0.42
2023-02-19T05:20:59.759Z,0.35
2023-02-19T05:23:27.815Z,0.41
2023-02-19T05:25:54.545Z,0.43
2023-02-19T05:28:28.636Z,0.23
2023-02-19T05:30:56.995Z,0.00
2023-02-19T05:33:26.050Z,0.29
2023-02-19T05:35:55.615Z,0.22
2023-02-19T05:38:23.743Z,0.22
2023-02-19T05:40:51.150Z,0.40
2023-02-19T05:43:18.284Z,0.58
2023-02-19T05:45:45.011Z,0.75
2023-02-19T05:48:12.361Z,0.89
2023-02-19T05:50:40.000Z,1.16
2023-02-19T05:53:07.063Z,1.29
2023-02-19T05:55:36.228Z,1.36
2023-02-19T05:58:03.189Z,1.43
2023-02-19T06:00:30.209Z,1.52
2023-02-19T06:02:56.846Z,1.57
2023-02-19T06:05:23.850Z,1.65
2023-02-19T06:07:50.688Z,1.70
2023-02-19T06:10:18.309Z,1.90
2023-02-19T06:12:46.037Z,1.99
2023-02-19T06:15:12.688Z,2.19
2023-02-19T06:17:39.619Z,2.41
2023-02-19T06:20:06.824Z,2.40
2023-02-19T06:22:33.503Z,2.69
2023-02-19T06:25:00.179Z,2.91
2023-02-19T06:27:27.054Z,3.14
2023-02-19T06:29:53.880Z,3.17
2023-02-19T06:32:20.870Z,3.46
2023-02-19T06:34:47.721Z,4.07
2023-02-19T06:37:14.449Z,4.90
2023-02-19T06:39:41.561Z,5.94
2023-02-19T06:42:08.236Z,6.78
2023-02-19T06:44:35.134Z,7.58
2023-02-19T06:47:01.831Z,7.65
2023-02-19T06:49:28.714Z,8.62
2023-02-19T06:51:55.640Z,8.81
2023-02-19T06:54:22.327Z,9.39
2023-02-19T06:56:49.087Z,9.76
2023-02-19T06:59:19.653Z,10.09
2023-02-19T07:01:46.577Z,10.35
2023-02-19T07:04:13.733Z,10.35
2023-02-19T07:06:40.603Z,11.50
2023-02-19T07:09:08.543Z,11.75
2023-02-19T07:11:37.962Z,10.75
2023-02-19T07:14:10.150Z,11.27
2023-02-19T07:16:37.141Z,11.58
2023-02-19T07:19:04.127Z,11.44
2023-02-19T07:21:30.990Z,11.71
2023-02-19T07:23:58.302Z,11.46
2023-02-19T07:26:25.339Z,11.27
2023-02-19T07:28:52.586Z,12.70
2023-02-19T07:31:21.005Z,13.60
2023-02-19T07:33:48.478Z,14.57
2023-02-19T07:36:17.844Z,14.89
2023-02-19T07:38:45.701Z,15.08
2023-02-19T07:41:13.337Z,16.05
2023-02-19T07:43:40.818Z,16.62
2023-02-19T07:46:13.623Z,16.83
2023-02-19T07:48:42.138Z,17.17
2023-02-19T07:51:13.343Z,16.74
2023-02-19T07:53:40.283Z,16.47
2023-02-19T07:56:08.498Z,16.90
2023-02-19T07:58:35.925Z,18.04
2023-02-19T08:01:15.908Z,17.64
2023-02-19T08:03:44.027Z,18.82
2023-02-19T08:06:12.047Z,19.55
2023-02-19T08:08:39.755Z,20.20
2023-02-19T08:11:25.572Z,20.67
2023-02-19T08:13:53.597Z,20.89
2023-02-19T08:16:33.246Z,21.35
2023-02-19T08:19:07.404Z,21.65
2023-02-19T08:21:34.532Z,22.43
2023-02-19T08:24:01.221Z,21.62
2023-02-19T08:26:27.951Z,19.75
2023-02-19T08:28:54.709Z,20.54
2023-02-19T08:31:21.477Z,20.87
2023-02-19T08:33:48.248Z,20.70
2023-02-19T08:36:15.065Z,22.28
2023-02-19T08:38:41.757Z,23.32
2023-02-19T08:41:11.470Z,24.16
2023-02-19T08:43:39.124Z,22.69
2023-02-19T08:46:07.283Z,22.28
2023-02-19T08:48:34.190Z,22.58
2023-02-19T08:51:04.243Z,23.54
2023-02-19T08:53:32.380Z,23.76
2023-02-19T08:55:59.322Z,25.42
2023-02-19T08:58:26.371Z,24.93
2023-02-19T09:00:53.313Z,24.31
2023-02-19T09:03:20.115Z,23.20
2023-02-19T09:05:47.001Z,22.80
2023-02-19T09:08:13.771Z,23.48
2023-02-19T09:10:40.592Z,24.91
2023-02-19T09:13:07.385Z,25.26
2023-02-19T09:15:34.137Z,24.15
2023-02-19T09:18:00.899Z,23.14
2023-02-19T09:20:27.596Z,23.76
2023-02-19T09:22:58.805Z,24.46
2023-02-19T09:25:26.111Z,23.97
2023-02-19T09:27:56.385Z,23.08
2023-02-19T09:30:23.235Z,23.43
2023-02-19T09:32:50.266Z,22.91
2023-02-19T09:35:16.975Z,22.83
2023-02-19T09:37:43.660Z,22.58
2023-02-19T09:40:21.828Z,22.78
2023-02-19T09:42:50.098Z,23.56
2023-02-19T09:45:23.333Z,23.45
2023-02-19T09:47:55.747Z,23.49
2023-02-19T09:50:36.297Z,23.41
2023-02-19T09:53:11.388Z,23.05
2023-02-19T09:55:42.653Z,23.51
2023-02-19T09:58:25.793Z,22.86
2023-02-19T10:00:54.507Z,22.82
2023-02-19T10:03:33.750Z,23.09
2023-02-19T10:06:23.604Z,23.91
2023-02-19T10:08:54.284Z,24.16
2023-02-19T10:11:22.563Z,23.88
2023-02-19T10:13:54.500Z,23.93
2023-02-19T10:16:26.679Z,23.90
2023-02-19T10:18:53.743Z,23.76
2023-02-19T10:21:25.808Z,24.08
2023-02-19T10:23:57.014Z,25.15
2023-02-19T10:26:24.372Z,25.74
2023-02-19T10:28:51.208Z,25.19
2023-02-19T10:31:24.262Z,24.97
2023-02-19T10:33:56.152Z,24.66
2023-02-19T10:36:39.616Z,24.24
2023-02-19T10:39:21.610Z,24.60
2023-02-19T10:41:51.877Z,23.51
2023-02-19T10:44:24.305Z,23.25
2023-02-19T10:46:55.420Z,22.42
2023-02-19T10:49:33.390Z,22.39
2023-02-19T10:52:10.879Z,22.79
2023-02-19T10:54:37.704Z,22.17
2023-02-19T10:57:30.117Z,22.23
2023-02-19T11:00:22.907Z,21.64
2023-02-19T11:02:49.653Z,21.44
2023-02-19T11:05:20.150Z,19.44
2023-02-19T11:08:05.196Z,19.06
2023-02-19T11:10:42.375Z,19.12
2023-02-19T11:13:16.471Z,18.75
2023-02-19T11:15:43.941Z,18.45
2023-02-19T11:18:13.656Z,18.37
2023-02-19T11:21:00.630Z,18.64
2023-02-19T11:23:27.320Z,19.25
2023-02-19T11:25:57.501Z,19.93
2023-02-19T11:28:33.377Z,20.89
2023-02-19T11:31:36.301Z,20.63
2023-02-19T11:34:29.988Z,20.94
2023-02-19T11:37:13.609Z,21.16
2023-02-19T11:39:45.580Z,21.46
2023-02-19T11:42:30.396Z,21.45
2023-02-19T11:45:00.154Z,21.12
2023-02-19T11:48:00.730Z,20.50
2023-02-19T11:50:29.548Z,20.14
2023-02-19T11:53:13.821Z,18.69
2023-02-19T11:56:08.124Z,18.82
2023-02-19T11:59:01.312Z,18.89
2023-02-19T12:01:37.119Z,19.05
2023-02-19T12:04:28.341Z,19.44
2023-02-19T12:07:01.008Z,19.12
2023-02-19T12:09:27.658Z,19.26
2023-02-19T12:12:25.426Z,19.23
2023-02-19T12:15:16.791Z,19.09
2023-02-19T12:18:04.131Z,19.84
2023-02-19T12:20:42.159Z,20.63
2023-02-19T12:23:36.843Z,20.31
2023-02-19T12:26:44.396Z,20.10
2023-02-19T12:29:11.046Z,19.86
2023-02-19T12:31:57.958Z,19.80
2023-02-19T12:34:43.057Z,20.37
2023-02-19T12:37:12.832Z,19.95
2023-02-19T12:39:56.643Z,19.14
2023-02-19T12:42:52.527Z,19.35
2023-02-19T12:45:33.458Z,19.14
2023-02-19T12:48:15.149Z,19.64
2023-02-19T12:50:45.387Z,19.53
2023-02-19T12:53:27.194Z,18.65
2023-02-19T12:55:56.073Z,18.61
2023-02-19T12:58:44.668Z,18.36
2023-02-19T13:01:18.675Z,19.07
2023-02-19T13:03:57.400Z,18.48
2023-02-19T13:06:38.025Z,18.71
2023-02-19T13:09:20.392Z,17.95
2023-02-19T13:11:53.198Z,18.15
2023-02-19T13:14:37.128Z,18.05
2023-02-19T13:17:21.391Z,17.73
2023-02-19T13:19:52.332Z,18.22
2023-02-19T13:22:45.907Z,17.75
2023-02-19T13:25:14.979Z,17.48
2023-02-19T13:28:05.235Z,17.38
2023-02-19T13:30:43.740Z,17.27
2023-02-19T13:33:16.118Z,17.25
2023-02-19T13:36:05.893Z,17.30
2023-02-19T13:38:45.270Z,17.40
2023-02-19T13:41:28.156Z,17.22
2023-02-19T13:44:02.415Z,17.51
2023-02-19T13:46:44.029Z,17.04
2023-02-19T13:49:33.918Z,16.90
2023-02-19T13:52:29.480Z,16.66
2023-02-19T13:55:33.791Z,16.95
2023-02-19T13:58:35.522Z,17.04
2023-02-19T14:01:10.023Z,17.32
2023-02-19T14:03:40.128Z,16.78
2023-02-19T14:06:10.284Z,16.44
2023-02-19T14:08:51.093Z,16.34
2023-02-19T14:11:37.971Z,16.20
2023-02-19T14:14:09.630Z,15.86
2023-02-19T14:16:55.425Z,15.81
2023-02-19T14:19:47.451Z,16.08
2023-02-19T14:22:57.041Z,16.00
2023-02-19T14:25:29.650Z,15.88
2023-02-19T14:28:30.227Z,16.02
2023-02-19T14:31:29.379Z,15.71
2023-02-19T14:34:00.552Z,15.88
2023-02-19T14:36:44.372Z,16.12
2023-02-19T14:39:23.344Z,16.20
2023-02-19T14:41:53.403Z,15.98
2023-02-19T14:44:31.031Z,15.96
2023-02-19T14:47:09.680Z,15.87
2023-02-19T14:49:47.741Z,16.07
2023-02-19T14:52:34.544Z,15.85
2023-02-19T14:55:08.456Z,15.98
2023-02-19T14:57:47.436Z,16.08
2023-02-19T15:00:37.092Z,15.54
2023-02-19T15:03:05.834Z,15.45
2023-02-19T15:05:36.744Z,15.38
2023-02-19T15:08:09.100Z,15.41
2023-02-19T15:10:36.868Z,15.26
2023-02-19T15:13:06.386Z,14.85
2023-02-19T15:15:37.594Z,14.68
2023-02-19T15:18:05.485Z,14.29
2023-02-19T15:20:37.776Z,14.29
2023-02-19T15:23:21.322Z,14.11
2023-02-19T15:25:49.579Z,14.05
2023-02-19T15:28:25.987Z,13.79
2023-02-19T15:30:58.858Z,13.53
2023-02-19T15:33:27.444Z,13.40
2023-02-19T15:35:56.992Z,13.37
2023-02-19T15:38:24.508Z,13.13
2023-02-19T15:40:51.812Z,13.15
2023-02-19T15:43:54.257Z,13.07
2023-02-19T15:46:23.417Z,12.86
2023-02-19T15:49:37.934Z,12.75
2023-02-19T15:52:10.714Z,12.48
2023-02-19T15:54:58.864Z,12.33
2023-02-19T15:57:31.582Z,12.32
2023-02-19T16:00:13.363Z,12.15
2023-02-19T16:02:40.624Z,11.94
2023-02-19T16:05:25.294Z,11.78
2023-02-19T16:08:08.488Z,11.66
2023-02-19T16:10:35.304Z,11.64
2023-02-19T16:13:03.792Z,11.77
2023-02-19T16:15:32.765Z,11.54
2023-02-19T16:17:59.959Z,11.49
2023-02-19T16:20:29.882Z,11.45
2023-02-19T16:23:03.255Z,11.33
2023-02-19T16:25:40.940Z,11.32
2023-02-19T16:28:37.586Z,11.19
2023-02-19T16:31:09.471Z,11.04
2023-02-19T16:33:39.945Z,10.95
2023-02-19T16:36:35.642Z,10.68
2023-02-19T16:39:08.479Z,10.69
2023-02-19T16:41:41.334Z,10.59
2023-02-19T16:44:32.580Z,10.40
2023-02-19T16:47:03.834Z,10.51
2023-02-19T16:49:31.013Z,10.51
2023-02-19T16:51:59.821Z,10.49
2023-02-19T16:54:26.703Z,10.13
2023-02-19T16:56:53.419Z,10.13
2023-02-19T16:59:20.504Z,9.88
2023-02-19T17:01:47.331Z,9.46
2023-02-19T17:04:15.964Z,9.31
2023-02-19T17:06:43.271Z,9.40
2023-02-19T17:09:10.220Z,9.43
2023-02-19T17:11:37.106Z,9.21
2023-02-19T17:14:03.860Z,9.02
2023-02-19T17:16:39.750Z,8.87
2023-02-19T17:19:13.539Z,8.67
2023-02-19T17:21:40.356Z,8.78
2023-02-19T17:24:07.184Z,8.79
2023-02-19T17:26:34.527Z,8.62
2023-02-19T17:29:04.441Z,8.36
2023-02-19T17:31:33.854Z,8.25
2023-02-19T17:34:00.942Z,8.15
2023-02-19T17:36:32.461Z,7.90
2023-02-19T17:39:00.421Z,7.92
2023-02-19T17:41:28.810Z,7.73
2023-02-19T17:43:55.561Z,7.51
2023-02-19T17:46:25.799Z,7.66
2023-02-19T17:48:53.915Z,7.46
2023-02-19T17:51:21.489Z,7.49
2023-02-19T17:53:48.275Z,7.53
2023-02-19T17:56:21.004Z,7.58
2023-02-19T17:58:47.763Z,7.69
2023-02-19T18:01:15.126Z,7.43
2023-02-19T18:03:43.155Z,7.42
2023-02-19T18:06:09.848Z,7.34
2023-02-19T18:08:36.579Z,7.34
2023-02-19T18:11:03.945Z,7.38
2023-02-19T18:13:30.577Z,7.32
2023-02-19T18:15:58.099Z,7.35
2023-02-19T18:18:24.822Z,7.36
2023-02-19T18:20:51.526Z,7.21
2023-02-19T18:23:20.556Z,7.33
2023-02-19T18:25:47.483Z,7.31
2023-02-19T18:28:15.023Z,7.27
2023-02-19T18:30:42.192Z,7.28
2023-02-19T18:33:13.350Z,7.22
2023-02-19T18:35:40.198Z,7.11
2023-02-19T18:38:06.878Z,6.71
2023-02-19T18:40:33.732Z,6.70
2023-02-19T18:43:01.827Z,6.76
2023-02-19T18:45:29.795Z,6.90
2023-02-19T18:47:56.588Z,6.91
2023-02-19T18:50:23.384Z,6.97
2023-02-19T18:52:50.210Z,6.66
2023-02-19T18:55:16.875Z,6.75
2023-02-19T18:57:44.370Z,6.86
2023-02-19T19:00:15.832Z,6.61
2023-02-19T19:02:49.112Z,6.80
2023-02-19T19:05:23.009Z,6.83
2023-02-19T19:07:51.928Z,6.38
2023-02-19T19:10:19.254Z,6.43
2023-02-19T19:12:46.243Z,6.33
2023-02-19T19:15:12.977Z,6.43
2023-02-19T19:17:41.161Z,6.47
2023-02-19T19:20:09.170Z,6.32
2023-02-19T19:22:35.861Z,6.03
2023-02-19T19:25:02.882Z,5.73
2023-02-19T19:27:29.552Z,5.63
2023-02-19T19:29:56.354Z,5.70
2023-02-19T19:32:23.276Z,5.75
2023-02-19T19:34:49.984Z,5.85
2023-02-19T19:37:16.823Z,5.81
2023-02-19T19:39:43.960Z,5.71
2023-02-19T19:42:10.748Z,5.72
2023-02-19T19:44:37.439Z,5.53
2023-02-19T19:47:04.413Z,5.71
2023-02-19T19:49:31.093Z,5.71
2023-02-19T19:52:01.135Z,5.52
2023-02-19T19:54:28.814Z,5.33
2023-02-19T19:56:55.769Z,5.44
2023-02-19T19:59:23.176Z,5.43
2023-02-19T20:01:57.124Z,5.39
2023-02-19T20:04:25.308Z,5.26
2023-02-19T20:06:52.102Z,5.22
2023-02-19T20:09:19.764Z,5.18
2023-02-19T20:11:48.801Z,5.27
2023-02-19T20:14:16.817Z,5.36
2023-02-19T20:16:44.907Z,5.35
2023-02-19T20:19:11.912Z,5.47
2023-02-19T20:21:38.638Z,5.13
2023-02-19T20:24:05.732Z,4.84
2023-02-19T20:26:32.717Z,4.64
2023-02-19T20:28:59.494Z,4.55
2023-02-19T20:31:26.791Z,4.44
2023-02-19T20:33:53.614Z,4.02
2023-02-19T20:36:20.877Z,4.32
2023-02-19T20:38:49.823Z,4.57
2023-02-19T20:41:16.710Z,4.51
2023-02-19T20:43:43.383Z,4.67
2023-02-19T20:46:10.995Z,4.58
2023-02-19T20:48:38.118Z,4.58
2023-02-19T20:51:05.088Z,4.70
2023-02-19T20:53:32.224Z,4.79
2023-02-19T20:55:59.380Z,4.30
2023-02-19T20:58:26.672Z,4.20
2023-02-19T21:00:54.357Z,4.44
2023-02-19T21:03:21.542Z,4.49
2023-02-19T21:05:48.437Z,4.66
2023-02-19T21:08:17.339Z,4.70
2023-02-19T21:10:46.097Z,4.82
2023-02-19T21:13:13.944Z,4.87
2023-02-19T21:15:40.837Z,4.80
2023-02-19T21:18:08.700Z,4.89
2023-02-19T21:20:35.402Z,4.98
2023-02-19T21:23:02.338Z,4.94
2023-02-19T21:25:31.436Z,4.94
2023-02-19T21:27:58.138Z,4.90
2023-02-19T21:30:24.873Z,4.83
2023-02-19T21:32:51.638Z,4.67
2023-02-19T21:35:18.391Z,4.50
2023-02-19T21:37:45.089Z,4.46
2023-02-19T21:40:13.058Z,4.32
2023-02-19T21:42:39.932Z,4.21
2023-02-19T21:45:07.145Z,4.19
2023-02-19T21:47:33.819Z,4.27
2023-02-19T21:50:00.525Z,4.25
2023-02-19T21:52:27.220Z,4.23
2023-02-19T21:54:53.905Z,4.37
2023-02-19T21:57:20.543Z,4.25
2023-02-19T21:59:47.247Z,4.22
2023-02-19T22:02:14.629Z,3.95
2023-02-19T22:04:41.453Z,4.05
2023-02-19T22:07:08.166Z,4.01
2023-02-19T22:09:34.861Z,4.01
2023-02-19T22:12:01.491Z,4.04
2023-02-19T22:14:28.200Z,4.08
2023-02-19T22:16:54.960Z,4.02
2023-02-19T22:19:21.758Z,4.02
2023-02-19T22:21:48.517Z,3.68
2023-02-19T22:24:21.522Z,3.62
2023-02-19T22:26:50.625Z,3.71
2023-02-19T22:29:17.776Z,3.84
2023-02-19T22:31:44.742Z,3.81
2023-02-19T22:34:12.947Z,3.79
2023-02-19T22:36:40.538Z,3.77
2023-02-19T22:39:08.662Z,3.75
2023-02-19T22:41:35.328Z,3.70
2023-02-19T22:44:02.453Z,3.66
2023-02-19T22:46:30.770Z,3.62
2023-02-19T22:48:58.344Z,3.45
2023-02-19T22:51:25.594Z,3.40
2023-02-19T22:53:55.239Z,3.45
2023-02-19T22:56:24.586Z,3.45
2023-02-19T22:58:51.699Z,3.45
2023-02-19T23:01:18.514Z,3.37
2023-02-19T23:03:57.225Z,3.27
2023-02-19T23:06:25.573Z,3.29
2023-02-19T23:08:53.411Z,3.27
2023-02-19T23:11:24.951Z,3.26
2023-02-19T23:13:51.832Z,3.29
2023-02-19T23:16:18.539Z,3.38
2023-02-19T23:18:45.351Z,3.42
2023-02-19T23:21:12.684Z,3.43
2023-02-19T23:23:43.284Z,3.37
2023-02-19T23:26:10.458Z,3.33
2023-02-19T23:28:39.785Z,3.34
2023-02-19T23:31:06.834Z,3.34
2023-02-19T23:33:33.806Z,3.43
2023-02-19T23:36:00.507Z,3.45
2023-02-19T23:38:27.538Z,3.53
2023-02-19T23:40:55.362Z,3.64
2023-02-19T23:43:22.083Z,3.66
2023-02-19T23:45:48.843Z,3.74
2023-02-19T23:48:15.611Z,3.31
2023-02-19T23:50:42.330Z,3.49
2023-02-19T23:53:09.079Z,3.59
2023-02-19T23:55:35.732Z,3.61
2023-02-19T23:58:02.369Z,3.69
